sensor_id;sensor_type;location;lat;lon;timestamp;temperature;humidity
32293;DHT22;43233;48.608;8.838;2024-01-06T00:01:31;5.40;65.50
32293;DHT22;43233;48.608;8.838;2024-01-06T00:03:57;5.40;65.40
32293;DHT22;43233;48.608;8.838;2024-01-06T00:06:22;5.40;65.50
32293;DHT22;43233;48.608;8.838;2024-01-06T00:08:48;5.40;65.50
32293;DHT22;43233;48.608;8.838;2024-01-06T00:11:20;5.40;65.40
32293;DHT22;43233;48.608;8.838;2024-01-06T00:13:46;5.40;65.50
32293;DHT22;43233;48.608;8.838;2024-01-06T00:16:11;5.40;65.30
32293;DHT22;43233;48.608;8.838;2024-01-06T00:18:37;5.40;65.30
32293;DHT22;43233;48.608;8.838;2024-01-06T00:21:03;5.40;65.20
32293;DHT22;43233;48.608;8.838;2024-01-06T00:23:28;5.30;65.10
32293;DHT22;43233;48.608;8.838;2024-01-06T00:25:54;5.30;65.30
32293;DHT22;43233;48.608;8.838;2024-01-06T00:28:19;5.30;65.20
32293;DHT22;43233;48.608;8.838;2024-01-06T00:30:45;5.30;65.30
32293;DHT22;43233;48.608;8.838;2024-01-06T00:33:12;5.20;65.40
32293;DHT22;43233;48.608;8.838;2024-01-06T00:35:37;5.20;65.60
32293;DHT22;43233;48.608;8.838;2024-01-06T00:38:03;5.20;65.70
32293;DHT22;43233;48.608;8.838;2024-01-06T00:40:29;5.20;65.60
32293;DHT22;43233;48.608;8.838;2024-01-06T00:42:54;5.20;65.60
32293;DHT22;43233;48.608;8.838;2024-01-06T00:45:20;5.10;65.60
32293;DHT22;43233;48.608;8.838;2024-01-06T00:47:46;5.10;65.40
32293;DHT22;43233;48.608;8.838;2024-01-06T00:50:12;5.10;65.40
32293;DHT22;43233;48.608;8.838;2024-01-06T00:52:38;5.10;65.50
32293;DHT22;43233;48.608;8.838;2024-01-06T00:55:04;5.10;65.40
32293;DHT22;43233;48.608;8.838;2024-01-06T00:57:29;5.10;65.80
32293;DHT22;43233;48.608;8.838;2024-01-06T00:59:55;5.00;65.80
32293;DHT22;43233;48.608;8.838;2024-01-06T01:02:21;5.00;66.30
32293;DHT22;43233;48.608;8.838;2024-01-06T01:04:47;4.90;66.70
32293;DHT22;43233;48.608;8.838;2024-01-06T01:07:12;4.90;66.80
32293;DHT22;43233;48.608;8.838;2024-01-06T01:09:38;4.90;67.10
32293;DHT22;43233;48.608;8.838;2024-01-06T01:12:04;4.90;67.40
32293;DHT22;43233;48.608;8.838;2024-01-06T01:14:30;4.90;67.60
32293;DHT22;43233;48.608;8.838;2024-01-06T01:16:55;4.80;67.80
32293;DHT22;43233;48.608;8.838;2024-01-06T01:19:21;4.80;68.00
32293;DHT22;43233;48.608;8.838;2024-01-06T01:21:46;4.80;68.30
32293;DHT22;43233;48.608;8.838;2024-01-06T01:24:12;4.80;68.60
32293;DHT22;43233;48.608;8.838;2024-01-06T01:26:37;4.80;69.00
32293;DHT22;43233;48.608;8.838;2024-01-06T01:29:03;4.80;69.20
32293;DHT22;43233;48.608;8.838;2024-01-06T01:31:29;4.80;69.00
32293;DHT22;43233;48.608;8.838;2024-01-06T01:33:54;4.80;68.90
32293;DHT22;43233;48.608;8.838;2024-01-06T01:36:20;4.80;69.00
32293;DHT22;43233;48.608;8.838;2024-01-06T01:38:45;4.80;69.10
32293;DHT22;43233;48.608;8.838;2024-01-06T01:41:11;4.80;69.20
32293;DHT22;43233;48.608;8.838;2024-01-06T01:43:36;4.80;68.90
32293;DHT22;43233;48.608;8.838;2024-01-06T01:46:03;4.80;69.00
32293;DHT22;43233;48.608;8.838;2024-01-06T01:48:28;4.80;68.90
32293;DHT22;43233;48.608;8.838;2024-01-06T01:50:54;4.80;68.60
32293;DHT22;43233;48.608;8.838;2024-01-06T01:53:20;4.80;68.60
32293;DHT22;43233;48.608;8.838;2024-01-06T01:55:47;4.80;68.40
32293;DHT22;43233;48.608;8.838;2024-01-06T01:58:14;4.80;68.20
32293;DHT22;43233;48.608;8.838;2024-01-06T02:00:39;4.80;68.20
32293;DHT22;43233;48.608;8.838;2024-01-06T02:03:05;4.80;67.80
32293;DHT22;43233;48.608;8.838;2024-01-06T02:05:31;4.80;67.50
32293;DHT22;43233;48.608;8.838;2024-01-06T02:07:57;4.90;67.20
32293;DHT22;43233;48.608;8.838;2024-01-06T02:10:23;4.80;66.50
32293;DHT22;43233;48.608;8.838;2024-01-06T02:12:49;4.80;66.50
32293;DHT22;43233;48.608;8.838;2024-01-06T02:15:17;4.80;66.20
32293;DHT22;43233;48.608;8.838;2024-01-06T02:17:42;4.80;66.20
32293;DHT22;43233;48.608;8.838;2024-01-06T02:20:09;4.80;66.20
32293;DHT22;43233;48.608;8.838;2024-01-06T02:22:36;4.80;66.30
32293;DHT22;43233;48.608;8.838;2024-01-06T02:25:02;4.80;66.30
32293;DHT22;43233;48.608;8.838;2024-01-06T02:27:32;4.80;66.40
32293;DHT22;43233;48.608;8.838;2024-01-06T02:29:58;4.80;66.60
32293;DHT22;43233;48.608;8.838;2024-01-06T02:32:24;4.80;66.80
32293;DHT22;43233;48.608;8.838;2024-01-06T02:34:49;4.70;66.80
32293;DHT22;43233;48.608;8.838;2024-01-06T02:37:15;4.70;66.80
32293;DHT22;43233;48.608;8.838;2024-01-06T02:39:40;4.80;66.80
32293;DHT22;43233;48.608;8.838;2024-01-06T02:42:06;4.70;66.70
32293;DHT22;43233;48.608;8.838;2024-01-06T02:44:32;4.70;66.70
32293;DHT22;43233;48.608;8.838;2024-01-06T02:46:57;4.70;66.70
32293;DHT22;43233;48.608;8.838;2024-01-06T02:49:23;4.70;66.60
32293;DHT22;43233;48.608;8.838;2024-01-06T02:51:48;4.70;67.40
32293;DHT22;43233;48.608;8.838;2024-01-06T02:54:14;4.70;66.70
32293;DHT22;43233;48.608;8.838;2024-01-06T02:56:39;4.70;66.60
32293;DHT22;43233;48.608;8.838;2024-01-06T02:59:05;4.70;66.70
32293;DHT22;43233;48.608;8.838;2024-01-06T03:01:31;4.70;66.60
32293;DHT22;43233;48.608;8.838;2024-01-06T03:03:57;4.70;66.70
32293;DHT22;43233;48.608;8.838;2024-01-06T03:06:22;4.60;66.70
32293;DHT22;43233;48.608;8.838;2024-01-06T03:08:48;4.70;66.90
32293;DHT22;43233;48.608;8.838;2024-01-06T03:11:13;4.60;66.70
32293;DHT22;43233;48.608;8.838;2024-01-06T03:13:39;4.70;66.80
32293;DHT22;43233;48.608;8.838;2024-01-06T03:16:05;4.60;66.80
32293;DHT22;43233;48.608;8.838;2024-01-06T03:18:31;4.60;67.00
32293;DHT22;43233;48.608;8.838;2024-01-06T03:20:56;4.60;67.00
32293;DHT22;43233;48.608;8.838;2024-01-06T03:23:22;4.50;68.00
32293;DHT22;43233;48.608;8.838;2024-01-06T03:25:48;4.50;67.50
32293;DHT22;43233;48.608;8.838;2024-01-06T03:28:13;4.50;67.70
32293;DHT22;43233;48.608;8.838;2024-01-06T03:30:39;4.50;67.90
32293;DHT22;43233;48.608;8.838;2024-01-06T03:33:06;4.50;67.90
32293;DHT22;43233;48.608;8.838;2024-01-06T03:35:32;4.50;67.90
32293;DHT22;43233;48.608;8.838;2024-01-06T03:37:57;4.50;67.80
32293;DHT22;43233;48.608;8.838;2024-01-06T03:40:23;4.50;67.80
32293;DHT22;43233;48.608;8.838;2024-01-06T03:42:48;4.50;67.80
32293;DHT22;43233;48.608;8.838;2024-01-06T03:45:14;4.50;67.80
32293;DHT22;43233;48.608;8.838;2024-01-06T03:47:40;4.50;67.80
32293;DHT22;43233;48.608;8.838;2024-01-06T03:50:05;4.50;67.80
32293;DHT22;43233;48.608;8.838;2024-01-06T03:52:31;4.50;67.80
32293;DHT22;43233;48.608;8.838;2024-01-06T03:54:57;4.50;67.80
32293;DHT22;43233;48.608;8.838;2024-01-06T03:57:22;4.50;67.70
32293;DHT22;43233;48.608;8.838;2024-01-06T03:59:48;4.50;67.60
32293;DHT22;43233;48.608;8.838;2024-01-06T04:02:14;4.60;67.50
32293;DHT22;43233;48.608;8.838;2024-01-06T04:04:39;4.60;67.50
32293;DHT22;43233;48.608;8.838;2024-01-06T04:07:05;4.60;67.30
32293;DHT22;43233;48.608;8.838;2024-01-06T04:09:32;4.60;67.20
32293;DHT22;43233;48.608;8.838;2024-01-06T04:11:57;4.60;67.00
32293;DHT22;43233;48.608;8.838;2024-01-06T04:14:23;4.60;66.80
32293;DHT22;43233;48.608;8.838;2024-01-06T04:16:48;4.60;66.70
32293;DHT22;43233;48.608;8.838;2024-01-06T04:19:14;4.60;66.70
32293;DHT22;43233;48.608;8.838;2024-01-06T04:21:40;4.60;66.60
32293;DHT22;43233;48.608;8.838;2024-01-06T04:24:06;4.70;66.50
32293;DHT22;43233;48.608;8.838;2024-01-06T04:26:31;4.70;66.40
32293;DHT22;43233;48.608;8.838;2024-01-06T04:28:57;4.70;66.30
32293;DHT22;43233;48.608;8.838;2024-01-06T04:31:23;4.70;66.20
32293;DHT22;43233;48.608;8.838;2024-01-06T04:33:48;4.70;66.20
32293;DHT22;43233;48.608;8.838;2024-01-06T04:36:14;4.70;66.20
32293;DHT22;43233;48.608;8.838;2024-01-06T04:38:39;4.70;66.00
32293;DHT22;43233;48.608;8.838;2024-01-06T04:41:05;4.70;66.00
32293;DHT22;43233;48.608;8.838;2024-01-06T04:43:31;4.80;66.00
32293;DHT22;43233;48.608;8.838;2024-01-06T04:45:56;4.80;65.90
32293;DHT22;43233;48.608;8.838;2024-01-06T04:48:23;4.80;65.90
32293;DHT22;43233;48.608;8.838;2024-01-06T04:50:49;4.80;65.90
32293;DHT22;43233;48.608;8.838;2024-01-06T04:53:14;4.80;65.80
32293;DHT22;43233;48.608;8.838;2024-01-06T04:55:40;4.80;65.60
32293;DHT22;43233;48.608;8.838;2024-01-06T04:58:06;4.80;65.50
32293;DHT22;43233;48.608;8.838;2024-01-06T05:00:31;4.80;65.40
32293;DHT22;43233;48.608;8.838;2024-01-06T05:02:57;4.80;65.40
32293;DHT22;43233;48.608;8.838;2024-01-06T05:05:23;4.80;65.30
32293;DHT22;43233;48.608;8.838;2024-01-06T05:07:49;4.80;65.10
32293;DHT22;43233;48.608;8.838;2024-01-06T05:10:14;4.80;65.20
32293;DHT22;43233;48.608;8.838;2024-01-06T05:12:40;4.70;65.10
32293;DHT22;43233;48.608;8.838;2024-01-06T05:15:06;4.70;65.40
32293;DHT22;43233;48.608;8.838;2024-01-06T05:17:31;4.70;65.60
32293;DHT22;43233;48.608;8.838;2024-01-06T05:19:57;4.80;65.90
32293;DHT22;43233;48.608;8.838;2024-01-06T05:22:23;4.70;65.70
32293;DHT22;43233;48.608;8.838;2024-01-06T05:24:49;4.70;65.50
32293;DHT22;43233;48.608;8.838;2024-01-06T05:27:18;4.70;65.10
32293;DHT22;43233;48.608;8.838;2024-01-06T05:29:44;4.70;64.90
32293;DHT22;43233;48.608;8.838;2024-01-06T05:32:09;4.70;64.90
32293;DHT22;43233;48.608;8.838;2024-01-06T05:34:35;4.70;64.90
32293;DHT22;43233;48.608;8.838;2024-01-06T05:37:01;4.70;64.90
32293;DHT22;43233;48.608;8.838;2024-01-06T05:39:27;4.70;64.90
32293;DHT22;43233;48.608;8.838;2024-01-06T05:41:53;4.70;64.90
32293;DHT22;43233;48.608;8.838;2024-01-06T05:44:18;4.70;64.50
32293;DHT22;43233;48.608;8.838;2024-01-06T05:46:44;4.70;64.30
32293;DHT22;43233;48.608;8.838;2024-01-06T05:49:10;4.70;64.20
32293;DHT22;43233;48.608;8.838;2024-01-06T05:51:35;4.70;64.00
32293;DHT22;43233;48.608;8.838;2024-01-06T05:54:01;4.60;64.10
32293;DHT22;43233;48.608;8.838;2024-01-06T05:56:28;4.60;64.30
32293;DHT22;43233;48.608;8.838;2024-01-06T05:58:54;4.60;64.30
32293;DHT22;43233;48.608;8.838;2024-01-06T06:01:20;4.60;64.40
32293;DHT22;43233;48.608;8.838;2024-01-06T06:03:47;4.60;64.40
32293;DHT22;43233;48.608;8.838;2024-01-06T06:06:13;4.60;64.20
32293;DHT22;43233;48.608;8.838;2024-01-06T06:08:41;4.70;64.30
32293;DHT22;43233;48.608;8.838;2024-01-06T06:11:07;4.60;64.10
32293;DHT22;43233;48.608;8.838;2024-01-06T06:13:43;4.60;63.80
32293;DHT22;43233;48.608;8.838;2024-01-06T06:16:12;4.70;64.00
32293;DHT22;43233;48.608;8.838;2024-01-06T06:18:40;4.70;63.80
32293;DHT22;43233;48.608;8.838;2024-01-06T06:21:06;4.70;63.50
32293;DHT22;43233;48.608;8.838;2024-01-06T06:23:33;4.70;63.50
32293;DHT22;43233;48.608;8.838;2024-01-06T06:25:59;4.70;63.10
32293;DHT22;43233;48.608;8.838;2024-01-06T06:28:25;4.70;63.10
32293;DHT22;43233;48.608;8.838;2024-01-06T06:30:51;4.70;62.90
32293;DHT22;43233;48.608;8.838;2024-01-06T06:33:16;4.70;62.80
32293;DHT22;43233;48.608;8.838;2024-01-06T06:35:42;4.70;63.00
32293;DHT22;43233;48.608;8.838;2024-01-06T06:38:08;4.70;63.10
32293;DHT22;43233;48.608;8.838;2024-01-06T06:40:33;4.70;63.00
32293;DHT22;43233;48.608;8.838;2024-01-06T06:42:59;4.70;63.30
32293;DHT22;43233;48.608;8.838;2024-01-06T06:45:25;4.70;63.10
32293;DHT22;43233;48.608;8.838;2024-01-06T06:47:50;4.70;63.10
32293;DHT22;43233;48.608;8.838;2024-01-06T06:50:17;4.70;62.70
32293;DHT22;43233;48.608;8.838;2024-01-06T06:52:42;4.70;62.80
32293;DHT22;43233;48.608;8.838;2024-01-06T06:55:08;4.70;62.70
32293;DHT22;43233;48.608;8.838;2024-01-06T06:57:34;4.70;62.90
32293;DHT22;43233;48.608;8.838;2024-01-06T06:59:59;4.80;62.90
32293;DHT22;43233;48.608;8.838;2024-01-06T07:02:26;4.80;63.10
32293;DHT22;43233;48.608;8.838;2024-01-06T07:04:51;4.80;63.10
32293;DHT22;43233;48.608;8.838;2024-01-06T07:07:17;4.80;63.40
32293;DHT22;43233;48.608;8.838;2024-01-06T07:09:42;4.80;63.40
32293;DHT22;43233;48.608;8.838;2024-01-06T07:12:08;4.80;63.40
32293;DHT22;43233;48.608;8.838;2024-01-06T07:14:34;4.80;63.40
32293;DHT22;43233;48.608;8.838;2024-01-06T07:16:59;4.80;63.20
32293;DHT22;43233;48.608;8.838;2024-01-06T07:19:25;4.70;63.10
32293;DHT22;43233;48.608;8.838;2024-01-06T07:21:50;4.70;63.20
32293;DHT22;43233;48.608;8.838;2024-01-06T07:24:16;4.80;63.20
32293;DHT22;43233;48.608;8.838;2024-01-06T07:26:41;4.70;63.50
32293;DHT22;43233;48.608;8.838;2024-01-06T07:29:07;4.70;63.70
32293;DHT22;43233;48.608;8.838;2024-01-06T07:31:33;4.70;63.80
32293;DHT22;43233;48.608;8.838;2024-01-06T07:33:59;4.70;63.90
32293;DHT22;43233;48.608;8.838;2024-01-06T07:36:25;4.70;63.90
32293;DHT22;43233;48.608;8.838;2024-01-06T07:38:50;4.80;63.80
32293;DHT22;43233;48.608;8.838;2024-01-06T07:41:17;4.80;63.40
32293;DHT22;43233;48.608;8.838;2024-01-06T07:43:43;4.80;63.10
32293;DHT22;43233;48.608;8.838;2024-01-06T07:46:09;4.70;63.10
32293;DHT22;43233;48.608;8.838;2024-01-06T07:48:35;4.70;62.80
32293;DHT22;43233;48.608;8.838;2024-01-06T07:51:01;4.80;62.20
32293;DHT22;43233;48.608;8.838;2024-01-06T07:53:28;4.80;62.20
32293;DHT22;43233;48.608;8.838;2024-01-06T07:55:54;4.80;62.00
32293;DHT22;43233;48.608;8.838;2024-01-06T07:58:20;4.80;61.60
32293;DHT22;43233;48.608;8.838;2024-01-06T08:00:47;4.90;61.40
32293;DHT22;43233;48.608;8.838;2024-01-06T08:03:13;4.80;61.20
32293;DHT22;43233;48.608;8.838;2024-01-06T08:05:38;4.90;61.00
32293;DHT22;43233;48.608;8.838;2024-01-06T08:08:05;4.90;60.40
32293;DHT22;43233;48.608;8.838;2024-01-06T08:10:31;4.90;60.20
32293;DHT22;43233;48.608;8.838;2024-01-06T08:12:56;5.00;60.20
32293;DHT22;43233;48.608;8.838;2024-01-06T08:15:22;5.00;59.90
32293;DHT22;43233;48.608;8.838;2024-01-06T08:17:48;5.10;59.80
32293;DHT22;43233;48.608;8.838;2024-01-06T08:20:13;5.10;59.50
32293;DHT22;43233;48.608;8.838;2024-01-06T08:22:39;5.20;59.50
32293;DHT22;43233;48.608;8.838;2024-01-06T08:25:05;5.20;59.20
32293;DHT22;43233;48.608;8.838;2024-01-06T08:27:34;5.30;59.10
32293;DHT22;43233;48.608;8.838;2024-01-06T08:30:00;5.30;59.40
32293;DHT22;43233;48.608;8.838;2024-01-06T08:32:26;5.40;58.80
32293;DHT22;43233;48.608;8.838;2024-01-06T08:34:51;5.40;58.20
32293;DHT22;43233;48.608;8.838;2024-01-06T08:37:17;5.40;57.90
32293;DHT22;43233;48.608;8.838;2024-01-06T08:39:43;5.50;57.60
32293;DHT22;43233;48.608;8.838;2024-01-06T08:42:08;5.50;58.00
32293;DHT22;43233;48.608;8.838;2024-01-06T08:44:34;5.50;58.40
32293;DHT22;43233;48.608;8.838;2024-01-06T08:47:00;5.40;58.70
32293;DHT22;43233;48.608;8.838;2024-01-06T08:49:25;5.50;58.70
32293;DHT22;43233;48.608;8.838;2024-01-06T08:51:51;5.50;58.20
32293;DHT22;43233;48.608;8.838;2024-01-06T08:54:16;5.50;58.20
32293;DHT22;43233;48.608;8.838;2024-01-06T08:56:42;5.50;58.50
32293;DHT22;43233;48.608;8.838;2024-01-06T08:59:07;5.50;58.50
32293;DHT22;43233;48.608;8.838;2024-01-06T09:01:33;5.50;58.20
32293;DHT22;43233;48.608;8.838;2024-01-06T09:04:01;5.50;58.00
32293;DHT22;43233;48.608;8.838;2024-01-06T09:06:27;5.50;58.10
32293;DHT22;43233;48.608;8.838;2024-01-06T09:08:52;5.60;57.50
32293;DHT22;43233;48.608;8.838;2024-01-06T09:11:18;5.60;57.30
32293;DHT22;43233;48.608;8.838;2024-01-06T09:13:44;5.60;57.60
32293;DHT22;43233;48.608;8.838;2024-01-06T09:16:09;5.70;57.80
32293;DHT22;43233;48.608;8.838;2024-01-06T09:18:36;5.80;57.40
32293;DHT22;43233;48.608;8.838;2024-01-06T09:21:01;5.90;57.00
32293;DHT22;43233;48.608;8.838;2024-01-06T09:23:28;6.00;56.40
32293;DHT22;43233;48.608;8.838;2024-01-06T09:25:54;6.10;56.40
32293;DHT22;43233;48.608;8.838;2024-01-06T09:28:19;6.20;56.50
32293;DHT22;43233;48.608;8.838;2024-01-06T09:30:46;6.30;55.90
32293;DHT22;43233;48.608;8.838;2024-01-06T09:33:12;6.30;55.60
32293;DHT22;43233;48.608;8.838;2024-01-06T09:35:41;6.30;55.10
32293;DHT22;43233;48.608;8.838;2024-01-06T09:38:07;6.40;55.30
32293;DHT22;43233;48.608;8.838;2024-01-06T09:40:34;6.40;54.50
32293;DHT22;43233;48.608;8.838;2024-01-06T09:43:00;6.40;54.20
32293;DHT22;43233;48.608;8.838;2024-01-06T09:45:28;6.40;54.50
32293;DHT22;43233;48.608;8.838;2024-01-06T09:47:54;6.30;54.90
32293;DHT22;43233;48.608;8.838;2024-01-06T09:50:21;6.30;55.00
32293;DHT22;43233;48.608;8.838;2024-01-06T09:52:48;6.30;54.90
32293;DHT22;43233;48.608;8.838;2024-01-06T09:55:25;6.20;54.90
32293;DHT22;43233;48.608;8.838;2024-01-06T09:57:52;6.20;55.20
32293;DHT22;43233;48.608;8.838;2024-01-06T10:00:19;6.10;55.20
32293;DHT22;43233;48.608;8.838;2024-01-06T10:02:46;6.00;55.90
32293;DHT22;43233;48.608;8.838;2024-01-06T10:05:13;6.10;56.20
32293;DHT22;43233;48.608;8.838;2024-01-06T10:07:41;6.10;56.40
32293;DHT22;43233;48.608;8.838;2024-01-06T10:10:07;6.10;56.40
32293;DHT22;43233;48.608;8.838;2024-01-06T10:12:33;6.10;56.10
32293;DHT22;43233;48.608;8.838;2024-01-06T10:14:59;6.20;56.10
32293;DHT22;43233;48.608;8.838;2024-01-06T10:17:24;6.20;55.80
32293;DHT22;43233;48.608;8.838;2024-01-06T10:19:50;6.20;55.90
32293;DHT22;43233;48.608;8.838;2024-01-06T10:22:18;6.20;55.60
32293;DHT22;43233;48.608;8.838;2024-01-06T10:24:44;6.20;55.70
32293;DHT22;43233;48.608;8.838;2024-01-06T10:27:10;6.10;55.90
32293;DHT22;43233;48.608;8.838;2024-01-06T10:29:35;6.10;57.00
32293;DHT22;43233;48.608;8.838;2024-01-06T10:32:01;6.10;56.50
32293;DHT22;43233;48.608;8.838;2024-01-06T10:34:28;6.10;56.60
32293;DHT22;43233;48.608;8.838;2024-01-06T10:36:54;6.10;56.70
32293;DHT22;43233;48.608;8.838;2024-01-06T10:39:21;6.10;56.60
32293;DHT22;43233;48.608;8.838;2024-01-06T10:41:50;6.10;56.80
32293;DHT22;43233;48.608;8.838;2024-01-06T10:44:17;6.10;56.80
32293;DHT22;43233;48.608;8.838;2024-01-06T10:46:44;6.10;57.30
32293;DHT22;43233;48.608;8.838;2024-01-06T10:49:11;6.10;56.50
32293;DHT22;43233;48.608;8.838;2024-01-06T10:51:38;6.20;56.60
32293;DHT22;43233;48.608;8.838;2024-01-06T10:54:04;6.10;56.80
32293;DHT22;43233;48.608;8.838;2024-01-06T10:56:36;6.10;57.10
32293;DHT22;43233;48.608;8.838;2024-01-06T10:59:03;6.10;57.30
32293;DHT22;43233;48.608;8.838;2024-01-06T11:01:29;6.10;57.30
32293;DHT22;43233;48.608;8.838;2024-01-06T11:03:55;6.10;57.40
32293;DHT22;43233;48.608;8.838;2024-01-06T11:06:21;6.10;57.40
32293;DHT22;43233;48.608;8.838;2024-01-06T11:08:56;6.10;57.80
32293;DHT22;43233;48.608;8.838;2024-01-06T11:11:25;6.10;58.20
32293;DHT22;43233;48.608;8.838;2024-01-06T11:13:51;6.10;58.40
32293;DHT22;43233;48.608;8.838;2024-01-06T11:16:37;6.10;58.20
32293;DHT22;43233;48.608;8.838;2024-01-06T11:19:03;6.10;58.40
32293;DHT22;43233;48.608;8.838;2024-01-06T11:21:48;6.10;58.60
32293;DHT22;43233;48.608;8.838;2024-01-06T11:24:15;6.10;59.20
32293;DHT22;43233;48.608;8.838;2024-01-06T11:26:50;6.10;59.40
32293;DHT22;43233;48.608;8.838;2024-01-06T11:29:17;6.10;59.70
32293;DHT22;43233;48.608;8.838;2024-01-06T11:31:42;6.20;59.60
32293;DHT22;43233;48.608;8.838;2024-01-06T11:34:16;6.20;59.10
32293;DHT22;43233;48.608;8.838;2024-01-06T11:36:46;6.20;59.20
32293;DHT22;43233;48.608;8.838;2024-01-06T11:39:35;6.30;59.50
32293;DHT22;43233;48.608;8.838;2024-01-06T11:42:02;6.40;59.30
32293;DHT22;43233;48.608;8.838;2024-01-06T11:44:28;6.50;59.40
32293;DHT22;43233;48.608;8.838;2024-01-06T11:46:58;6.60;59.20
32293;DHT22;43233;48.608;8.838;2024-01-06T11:49:27;6.60;59.00
32293;DHT22;43233;48.608;8.838;2024-01-06T11:51:56;6.70;58.70
32293;DHT22;43233;48.608;8.838;2024-01-06T11:54:22;6.70;58.40
32293;DHT22;43233;48.608;8.838;2024-01-06T11:56:48;6.60;58.40
32293;DHT22;43233;48.608;8.838;2024-01-06T11:59:14;6.70;58.50
32293;DHT22;43233;48.608;8.838;2024-01-06T12:01:40;6.70;58.40
32293;DHT22;43233;48.608;8.838;2024-01-06T12:04:06;6.70;58.00
32293;DHT22;43233;48.608;8.838;2024-01-06T12:06:32;6.80;58.50
32293;DHT22;43233;48.608;8.838;2024-01-06T12:09:06;6.80;57.30
32293;DHT22;43233;48.608;8.838;2024-01-06T12:11:32;6.80;57.80
32293;DHT22;43233;48.608;8.838;2024-01-06T12:13:57;6.80;58.20
32293;DHT22;43233;48.608;8.838;2024-01-06T12:16:23;6.90;58.00
32293;DHT22;43233;48.608;8.838;2024-01-06T12:18:56;7.00;58.20
32293;DHT22;43233;48.608;8.838;2024-01-06T12:21:23;7.10;57.50
32293;DHT22;43233;48.608;8.838;2024-01-06T12:23:52;7.20;57.30
32293;DHT22;43233;48.608;8.838;2024-01-06T12:26:19;7.40;56.70
32293;DHT22;43233;48.608;8.838;2024-01-06T12:28:54;7.40;55.80
32293;DHT22;43233;48.608;8.838;2024-01-06T12:31:20;7.50;54.90
32293;DHT22;43233;48.608;8.838;2024-01-06T12:33:46;7.60;55.50
32293;DHT22;43233;48.608;8.838;2024-01-06T12:36:11;7.60;54.90
32293;DHT22;43233;48.608;8.838;2024-01-06T12:38:37;7.70;54.50
32293;DHT22;43233;48.608;8.838;2024-01-06T12:41:06;7.80;54.30
32293;DHT22;43233;48.608;8.838;2024-01-06T12:43:31;7.80;54.00
32293;DHT22;43233;48.608;8.838;2024-01-06T12:45:57;7.80;54.00
32293;DHT22;43233;48.608;8.838;2024-01-06T12:48:23;7.70;53.70
32293;DHT22;43233;48.608;8.838;2024-01-06T12:50:49;7.60;53.40
32293;DHT22;43233;48.608;8.838;2024-01-06T12:53:15;7.50;54.50
32293;DHT22;43233;48.608;8.838;2024-01-06T12:55:43;7.50;54.80
32293;DHT22;43233;48.608;8.838;2024-01-06T12:58:08;7.40;54.80
32293;DHT22;43233;48.608;8.838;2024-01-06T13:00:34;7.30;55.30
32293;DHT22;43233;48.608;8.838;2024-01-06T13:02:59;7.30;55.20
32293;DHT22;43233;48.608;8.838;2024-01-06T13:05:25;7.20;55.50
32293;DHT22;43233;48.608;8.838;2024-01-06T13:07:51;7.20;55.70
32293;DHT22;43233;48.608;8.838;2024-01-06T13:10:17;7.20;55.70
32293;DHT22;43233;48.608;8.838;2024-01-06T13:12:42;7.10;55.70
32293;DHT22;43233;48.608;8.838;2024-01-06T13:15:08;7.10;55.90
32293;DHT22;43233;48.608;8.838;2024-01-06T13:17:39;7.10;56.30
32293;DHT22;43233;48.608;8.838;2024-01-06T13:20:05;7.10;56.30
32293;DHT22;43233;48.608;8.838;2024-01-06T13:22:31;7.10;56.10
32293;DHT22;43233;48.608;8.838;2024-01-06T13:24:57;7.10;56.20
32293;DHT22;43233;48.608;8.838;2024-01-06T13:27:24;7.10;56.10
32293;DHT22;43233;48.608;8.838;2024-01-06T13:29:52;7.00;56.00
32293;DHT22;43233;48.608;8.838;2024-01-06T13:32:17;7.00;56.20
32293;DHT22;43233;48.608;8.838;2024-01-06T13:34:44;6.90;56.00
32293;DHT22;43233;48.608;8.838;2024-01-06T13:37:10;6.80;56.30
32293;DHT22;43233;48.608;8.838;2024-01-06T13:39:36;6.80;56.40
32293;DHT22;43233;48.608;8.838;2024-01-06T13:42:02;6.80;56.50
32293;DHT22;43233;48.608;8.838;2024-01-06T13:44:29;6.70;57.00
32293;DHT22;43233;48.608;8.838;2024-01-06T13:46:54;6.70;57.20
32293;DHT22;43233;48.608;8.838;2024-01-06T13:49:21;6.70;57.40
32293;DHT22;43233;48.608;8.838;2024-01-06T13:51:47;6.60;57.80
32293;DHT22;43233;48.608;8.838;2024-01-06T13:54:13;6.60;58.00
32293;DHT22;43233;48.608;8.838;2024-01-06T13:56:40;6.60;58.40
32293;DHT22;43233;48.608;8.838;2024-01-06T13:59:05;6.50;58.60
32293;DHT22;43233;48.608;8.838;2024-01-06T14:01:31;6.60;58.50
32293;DHT22;43233;48.608;8.838;2024-01-06T14:03:58;6.50;58.50
32293;DHT22;43233;48.608;8.838;2024-01-06T14:06:27;6.50;58.70
32293;DHT22;43233;48.608;8.838;2024-01-06T14:08:58;6.50;58.80
32293;DHT22;43233;48.608;8.838;2024-01-06T14:11:24;6.50;59.00
32293;DHT22;43233;48.608;8.838;2024-01-06T14:13:51;6.50;59.20
32293;DHT22;43233;48.608;8.838;2024-01-06T14:16:20;6.50;59.40
32293;DHT22;43233;48.608;8.838;2024-01-06T14:18:49;6.50;59.30
32293;DHT22;43233;48.608;8.838;2024-01-06T14:21:14;6.40;59.10
32293;DHT22;43233;48.608;8.838;2024-01-06T14:23:43;6.40;58.80
32293;DHT22;43233;48.608;8.838;2024-01-06T14:26:09;6.40;58.80
32293;DHT22;43233;48.608;8.838;2024-01-06T14:28:35;6.40;59.00
32293;DHT22;43233;48.608;8.838;2024-01-06T14:31:01;6.30;58.90
32293;DHT22;43233;48.608;8.838;2024-01-06T14:33:26;6.30;58.80
32293;DHT22;43233;48.608;8.838;2024-01-06T14:35:52;6.30;59.10
32293;DHT22;43233;48.608;8.838;2024-01-06T14:38:19;6.30;59.10
32293;DHT22;43233;48.608;8.838;2024-01-06T14:40:44;6.30;59.40
32293;DHT22;43233;48.608;8.838;2024-01-06T14:43:10;6.30;59.30
32293;DHT22;43233;48.608;8.838;2024-01-06T14:45:36;6.30;59.50
32293;DHT22;43233;48.608;8.838;2024-01-06T14:48:02;6.30;59.50
32293;DHT22;43233;48.608;8.838;2024-01-06T14:50:27;6.30;59.50
32293;DHT22;43233;48.608;8.838;2024-01-06T14:52:53;6.30;59.70
32293;DHT22;43233;48.608;8.838;2024-01-06T14:55:19;6.30;59.70
32293;DHT22;43233;48.608;8.838;2024-01-06T14:57:44;6.30;59.60
32293;DHT22;43233;48.608;8.838;2024-01-06T15:00:10;6.20;59.50
32293;DHT22;43233;48.608;8.838;2024-01-06T15:02:39;6.20;59.60
32293;DHT22;43233;48.608;8.838;2024-01-06T15:05:05;6.20;59.80
32293;DHT22;43233;48.608;8.838;2024-01-06T15:07:31;6.20;59.90
32293;DHT22;43233;48.608;8.838;2024-01-06T15:09:59;6.20;59.80
32293;DHT22;43233;48.608;8.838;2024-01-06T15:12:25;6.20;60.00
32293;DHT22;43233;48.608;8.838;2024-01-06T15:14:50;6.20;60.00
32293;DHT22;43233;48.608;8.838;2024-01-06T15:17:16;6.10;60.10
32293;DHT22;43233;48.608;8.838;2024-01-06T15:19:46;6.10;60.20
32293;DHT22;43233;48.608;8.838;2024-01-06T15:22:12;6.10;60.30
32293;DHT22;43233;48.608;8.838;2024-01-06T15:24:40;6.10;60.50
32293;DHT22;43233;48.608;8.838;2024-01-06T15:27:08;6.10;60.60
32293;DHT22;43233;48.608;8.838;2024-01-06T15:29:34;6.10;60.70
32293;DHT22;43233;48.608;8.838;2024-01-06T15:31:59;6.10;60.70
32293;DHT22;43233;48.608;8.838;2024-01-06T15:34:25;6.00;60.90
32293;DHT22;43233;48.608;8.838;2024-01-06T15:36:51;6.00;61.10
32293;DHT22;43233;48.608;8.838;2024-01-06T15:39:17;6.00;61.40